Time;durP1;ratioP1;P1;durP2;ratioP2;P2;SDS_P1;SDS_P2;PMS_P1;PMS_P2;Temp;Humidity;BMP_temperature;BMP_pressure;BME280_temperature;BME280_humidity;BME280_pressure;Samples;Min_cycle;Max_cycle;Signal;HPM_P1;HPM_P2
2023/02/23 00:00:53;;;;;;;1.95;1.27;;;17.90;42.10;;;;;;5068665;28;20750;-76
2023/02/23 00:03:20;;;;;;;4.50;1.10;;;17.90;42.10;;;;;;5055231;28;20251;-73
2023/02/23 00:05:47;;;;;;;4.28;1.40;;;17.90;42.10;;;;;;5060965;28;20195;-76
2023/02/23 00:08:16;;;;;;;2.33;1.40;;;17.90;42.10;;;;;;5062230;28;20289;-76
2023/02/23 00:10:43;;;;;;;2.08;0.90;;;17.90;42.10;;;;;;5071231;28;20260;-73
2023/02/23 00:13:10;;;;;;;1.67;1.00;;;17.90;42.10;;;;;;5056532;28;20219;-76
2023/02/23 00:15:38;;;;;;;2.22;1.23;;;17.90;42.10;;;;;;5061112;28;20195;-69
2023/02/23 00:18:06;;;;;;;2.20;0.98;;;17.90;42.10;;;;;;5061461;28;20716;-75
2023/02/23 00:20:33;;;;;;;3.45;1.45;;;17.90;42.10;;;;;;5065337;28;20203;-73
2023/02/23 00:23:00;;;;;;;2.30;1.25;;;17.90;42.10;;;;;;5059106;28;20310;-77
2023/02/23 00:25:29;;;;;;;2.63;1.10;;;17.80;42.10;;;;;;5060715;28;20198;-76
2023/02/23 00:27:57;;;;;;;1.98;1.17;;;17.80;42.10;;;;;;5061693;28;20693;-77
2023/02/23 00:30:25;;;;;;;1.52;0.88;;;17.80;42.10;;;;;;5063529;28;20237;-77
2023/02/23 00:32:52;;;;;;;4.88;1.10;;;17.80;42.10;;;;;;5062020;28;20604;-72
2023/02/23 00:35:19;;;;;;;2.70;1.02;;;17.80;42.10;;;;;;5062487;28;20308;-73
2023/02/23 00:37:48;;;;;;;2.05;1.08;;;17.80;42.10;;;;;;5062057;28;20273;-76
2023/02/23 00:40:19;;;;;;;2.50;1.05;;;17.80;42.10;;;;;;5060903;28;20195;-76
2023/02/23 00:42:48;;;;;;;1.50;1.00;;;17.80;42.10;;;;;;5061811;28;20223;-67
2023/02/23 00:45:16;;;;;;;2.88;1.25;;;17.80;42.10;;;;;;5060412;28;20195;-75
2023/02/23 00:47:47;;;;;;;1.73;1.10;;;17.80;42.10;;;;;;5061459;28;20234;-76
2023/02/23 00:50:16;;;;;;;2.25;0.88;;;17.80;42.10;;;;;;5060060;28;20198;-75
2023/02/23 00:52:44;;;;;;;2.45;1.25;;;17.80;42.10;;;;;;5062026;28;20230;-73
2023/02/23 00:55:13;;;;;;;2.35;1.02;;;17.80;42.10;;;;;;5059785;28;20194;-73
2023/02/23 00:57:41;;;;;;;3.47;1.38;;;17.80;42.10;;;;;;5061369;28;20289;-76
2023/02/23 01:00:19;;;;;;;1.83;1.02;;;17.80;42.10;;;;;;5058870;28;20225;-76
2023/02/23 01:02:46;;;;;;;2.53;1.02;;;17.80;42.10;;;;;;5059769;28;20222;-72
2023/02/23 01:05:14;;;;;;;1.58;1.08;;;17.80;42.10;;;;;;5059534;28;20199;-76
2023/02/23 01:07:41;;;;;;;3.40;1.15;;;17.70;42.10;;;;;;5060583;28;20352;-74
2023/02/23 01:10:18;;;;;;;2.90;1.20;;;17.70;42.10;;;;;;5065814;28;20199;-74
2023/02/23 01:12:47;;;;;;;2.47;1.52;;;17.70;42.10;;;;;;5054273;28;20226;-76
2023/02/23 01:15:16;;;;;;;2.97;1.30;;;17.70;42.10;;;;;;5060691;28;20205;-74
2023/02/23 01:17:43;;;;;;;3.78;1.38;;;17.70;42.10;;;;;;5060461;28;20296;-73
2023/02/23 01:20:16;;;;;;;4.47;1.60;;;17.70;42.10;;;;;;5057099;28;20199;-75
2023/02/23 01:22:44;;;;;;;1.75;1.17;;;17.70;42.10;;;;;;5069672;28;20717;-77
2023/02/23 01:25:12;;;;;;;3.08;1.10;;;17.70;42.10;;;;;;5058283;28;20191;-76
2023/02/23 01:27:39;;;;;;;1.67;1.23;;;17.70;42.10;;;;;;5062120;28;20313;-76
2023/02/23 01:30:08;;;;;;;2.50;1.33;;;17.70;42.10;;;;;;5055074;28;20198;-78
2023/02/23 01:32:37;;;;;;;1.60;1.10;;;17.70;42.10;;;;;;5053160;28;20258;-77
2023/02/23 01:35:06;;;;;;;2.13;1.38;;;17.70;42.10;;;;;;5056180;28;20248;-72
2023/02/23 01:37:35;;;;;;;1.83;1.30;;;17.70;42.10;;;;;;5063106;28;20219;-71
2023/02/23 01:40:09;;;;;;;1.35;1.25;;;17.60;42.00;;;;;;5054831;28;20198;-72
2023/02/23 01:42:38;;;;;;;2.25;1.20;;;17.60;42.00;;;;;;5053385;28;20582;-70
2023/02/23 01:45:26;;;;;;;3.35;1.80;;;17.60;42.00;;;;;;5055168;28;20205;-76
2023/02/23 01:47:57;;;;;;;1.73;1.35;;;17.70;42.00;;;;;;5059504;28;20669;-73
2023/02/23 01:50:28;;;;;;;2.22;1.40;;;17.60;42.00;;;;;;5054458;28;20907;-69
2023/02/23 01:52:55;;;;;;;2.03;1.35;;;17.60;42.00;;;;;;5052805;28;20223;-75
2023/02/23 01:55:28;;;;;;;1.67;1.10;;;17.60;42.00;;;;;;5056882;28;20191;-74
2023/02/23 01:58:02;;;;;;;1.50;1.20;;;17.60;42.00;;;;;;5060843;28;20219;-76
2023/02/23 02:00:31;;;;;;;1.83;1.30;;;17.60;41.90;;;;;;5054627;28;20729;-77
2023/02/23 02:03:06;;;;;;;2.17;1.55;;;17.60;41.90;;;;;;5052436;28;20219;-71
2023/02/23 02:05:33;;;;;;;2.42;1.50;;;17.60;42.00;;;;;;5057316;28;20194;-76
2023/02/23 02:08:01;;;;;;;2.05;1.20;;;17.60;41.90;;;;;;5060688;28;20231;-73
2023/02/23 02:10:43;;;;;;;3.30;1.40;;;17.60;42.00;;;;;;5067851;28;20191;-73
2023/02/23 02:13:17;;;;;;;2.50;1.30;;;17.60;42.00;;;;;;5052668;28;20226;-76
2023/02/23 02:16:14;;;;;;;2.95;1.70;;;17.60;41.90;;;;;;5058415;28;20190;-76
2023/02/23 02:19:17;;;;;;;3.75;1.40;;;17.60;41.90;;;;;;5059336;28;20257;-75
2023/02/23 02:22:17;;;;;;;3.33;1.60;;;17.60;41.90;;;;;;5059304;28;20277;-75
2023/02/23 02:25:28;;;;;;;2.15;1.27;;;17.60;42.00;;;;;;5051443;28;20667;-76
2023/02/23 02:28:21;;;;;;;2.08;1.15;;;17.50;41.80;;;;;;5058082;28;20218;-75
2023/02/23 02:31:18;;;;;;;2.92;1.38;;;17.50;41.80;;;;;;5054479;28;20194;-77
2023/02/23 02:34:17;;;;;;;1.92;1.10;;;17.50;41.90;;;;;;5057864;28;20225;-76
2023/02/23 02:37:17;;;;;;;2.30;1.20;;;17.50;41.90;;;;;;5057715;28;20661;-77
2023/02/23 02:39:54;;;;;;;2.00;1.27;;;17.50;41.90;;;;;;5051654;28;20207;-72
2023/02/23 02:42:29;;;;;;;2.75;1.38;;;17.50;41.90;;;;;;5058867;28;20780;-73
2023/02/23 02:45:00;;;;;;;2.45;1.33;;;17.50;41.90;;;;;;5051205;28;20615;-69
2023/02/23 02:47:31;;;;;;;2.42;1.10;;;17.50;41.90;;;;;;5061515;28;20215;-69
2023/02/23 02:50:06;;;;;;;2.40;1.48;;;17.50;41.90;;;;;;5053932;28;20222;-72
2023/02/23 02:52:40;;;;;;;3.10;1.10;;;17.50;41.90;;;;;;5059563;28;20229;-68
2023/02/23 02:55:14;;;;;;;2.33;1.25;;;17.50;41.90;;;;;;5051178;28;20230;-70
2023/02/23 02:57:45;;;;;;;1.67;1.13;;;17.50;41.90;;;;;;5055954;28;20288;-69
2023/02/23 04:19:06;;;;;;;1.85;0.95;;;17.30;41.60;;;;;;5061541;28;20241;-75
2023/02/23 04:21:33;;;;;;;1.83;1.00;;;17.30;41.60;;;;;;5056786;28;20200;-67
2023/02/23 04:24:00;;;;;;;1.88;0.85;;;17.30;41.60;;;;;;5054681;28;20224;-75
2023/02/23 04:26:27;;;;;;;1.30;0.80;;;17.20;41.60;;;;;;5058753;28;20244;-70
2023/02/23 04:28:54;;;;;;;1.05;0.80;;;17.30;41.60;;;;;;5064680;28;20234;-64
2023/02/23 04:31:23;;;;;;;1.02;0.90;;;17.30;41.60;;;;;;5057967;28;20240;-67
2023/02/23 04:33:51;;;;;;;1.27;0.95;;;17.30;41.60;;;;;;5054179;28;20766;-73
2023/02/23 04:36:18;;;;;;;1.27;0.82;;;17.30;42.30;;;;;;5056687;28;20240;-78
2023/02/23 04:38:46;;;;;;;1.27;0.80;;;17.30;41.60;;;;;;5064666;28;20271;-64
2023/02/23 04:41:14;;;;;;;1.38;0.95;;;17.30;41.60;;;;;;5069812;28;20191;-76
2023/02/23 04:43:41;;;;;;;1.30;0.88;;;17.30;41.60;;;;;;5057133;28;20273;-74
2023/02/23 04:46:08;;;;;;;2.30;0.82;;;17.30;41.60;;;;;;5054443;28;20253;-72
2023/02/23 04:48:35;;;;;;;1.27;0.85;;;17.20;41.60;;;;;;5064384;28;20273;-75
2023/02/23 04:51:04;;;;;;;1.02;0.93;;;17.20;41.60;;;;;;5054996;28;20246;-69
2023/02/23 04:53:31;;;;;;;1.23;0.80;;;17.20;41.60;;;;;;5065223;28;20292;-77
2023/02/23 04:55:58;;;;;;;1.23;0.90;;;17.20;41.60;;;;;;5052756;28;20685;-74
2023/02/23 04:58:25;;;;;;;0.90;0.90;;;17.20;41.60;;;;;;5063804;28;20270;-63
2023/02/23 05:00:53;;;;;;;1.80;1.17;;;17.20;41.50;;;;;;5056356;28;20203;-69
2023/02/23 05:03:20;;;;;;;1.83;1.10;;;17.20;41.60;;;;;;5056078;28;20264;-70
2023/02/23 05:05:47;;;;;;;1.40;0.90;;;17.20;41.60;;;;;;5065656;28;20195;-68
2023/02/23 05:08:15;;;;;;;1.33;0.90;;;17.20;41.60;;;;;;5061959;28;20281;-76
2023/02/23 05:10:42;;;;;;;1.20;0.95;;;17.20;41.60;;;;;;5056269;28;20215;-66
2023/02/23 05:13:09;;;;;;;1.27;0.88;;;17.20;41.60;;;;;;5053236;28;20223;-78
2023/02/23 05:15:37;;;;;;;1.45;0.85;;;17.20;41.60;;;;;;5051577;28;20203;-78
2023/02/23 05:18:04;;;;;;;0.80;0.80;;;17.20;41.60;;;;;;5059067;28;20318;-70
2023/02/23 05:20:31;;;;;;;1.10;0.88;;;17.20;41.60;;;;;;5051029;28;20216;-63
2023/02/23 05:22:58;;;;;;;1.40;0.93;;;17.20;41.60;;;;;;5053804;28;20215;-72
2023/02/23 05:25:27;;;;;;;0.82;0.70;;;17.20;42.30;;;;;;5051395;28;20254;-74
2023/02/23 05:27:54;;;;;;;0.70;0.70;;;17.20;41.60;;;;;;5058218;28;20697;-63
2023/02/23 05:30:21;;;;;;;3.80;0.95;;;17.20;41.60;;;;;;5060006;28;20223;-78
2023/02/23 05:32:48;;;;;;;2.30;0.93;;;17.20;41.60;;;;;;5053872;28;20276;-78
2023/02/23 05:35:15;;;;;;;1.30;1.08;;;17.20;41.60;;;;;;5051530;28;20268;-76
2023/02/23 05:37:43;;;;;;;0.93;0.90;;;17.20;41.60;;;;;;5057342;28;20250;-75
2023/02/23 05:40:11;;;;;;;1.35;1.00;;;17.10;41.50;;;;;;5054734;28;20790;-78
2023/02/23 05:42:40;;;;;;;1.25;1.15;;;17.10;41.60;;;;;;5058760;28;20194;-79
2023/02/23 05:45:08;;;;;;;1.33;1.02;;;17.10;41.60;;;;;;5051402;28;20191;-78
2023/02/23 05:47:37;;;;;;;1.13;1.00;;;17.20;41.70;;;;;;5051480;28;20199;-74
2023/02/23 05:50:05;;;;;;;2.08;1.08;;;17.20;41.70;;;;;;5051926;28;20254;-73
2023/02/23 05:52:33;;;;;;;1.65;1.20;;;17.20;41.70;;;;;;5057219;28;20278;-69
2023/02/23 05:55:00;;;;;;;1.67;1.02;;;17.30;41.60;;;;;;5051531;28;20219;-67
2023/02/23 05:57:27;;;;;;;1.40;1.10;;;17.30;41.60;;;;;;5051230;28;20191;-71
2023/02/23 05:59:56;;;;;;;1.60;0.82;;;17.40;41.60;;;;;;5051929;28;20368;-79
2023/02/23 06:02:23;;;;;;;1.10;1.00;;;17.40;41.60;;;;;;5052542;28;20242;-79
2023/02/23 06:04:50;;;;;;;0.90;0.77;;;17.40;41.60;;;;;;5053534;28;20268;-78
2023/02/23 06:07:17;;;;;;;1.52;0.98;;;17.50;41.60;;;;;;5050937;28;20249;-79
2023/02/23 06:09:44;;;;;;;1.42;1.13;;;17.50;42.20;;;;;;5053712;28;20235;-70
2023/02/23 06:12:11;;;;;;;1.25;1.00;;;17.60;41.60;;;;;;5052560;28;20203;-67
2023/02/23 06:14:38;;;;;;;1.90;1.08;;;17.60;41.50;;;;;;5050761;28;20220;-64
2023/02/23 06:17:07;;;;;;;1.60;1.08;;;17.60;41.40;;;;;;5055096;28;20199;-64
2023/02/23 06:19:34;;;;;;;32.55;1.48;;;17.70;41.50;;;;;;5051261;28;20239;-67
2023/02/23 06:22:01;;;;;;;9.57;1.33;;;17.80;41.70;;;;;;5052672;28;20652;-67
2023/02/23 06:24:28;;;;;;;1.17;1.02;;;17.90;41.60;;;;;;5050158;28;20212;-68
2023/02/23 06:26:56;;;;;;;3.35;1.00;;;18.00;41.50;;;;;;5050558;28;20279;-68
2023/02/23 06:29:23;;;;;;;1.13;0.90;;;18.10;43.60;;;;;;5052791;28;20289;-68
2023/02/23 06:31:50;;;;;;;1.73;1.10;;;18.10;45.40;;;;;;5051212;28;20685;-68
2023/02/23 06:34:19;;;;;;;4.07;1.00;;;18.20;46.50;;;;;;5051065;28;20281;-68
2023/02/23 06:36:46;;;;;;;2.22;1.20;;;18.20;45.70;;;;;;5050269;28;20714;-68
2023/02/23 06:39:13;;;;;;;1.00;0.88;;;18.20;45.20;;;;;;5054838;28;20679;-67
2023/02/23 06:41:40;;;;;;;2.15;1.13;;;18.20;44.70;;;;;;5050023;28;20253;-68
2023/02/23 06:44:07;;;;;;;1.70;1.05;;;18.20;44.50;;;;;;5052705;28;20269;-68
2023/02/23 06:46:35;;;;;;;3.75;1.70;;;18.20;43.90;;;;;;5049921;28;20613;-68
2023/02/23 06:49:02;;;;;;;1.25;1.05;;;18.20;44.00;;;;;;5056139;28;20250;-68
2023/02/23 06:51:31;;;;;;;3.15;1.25;;;18.20;43.80;;;;;;5055181;28;20624;-68
2023/02/23 06:53:58;;;;;;;0.88;0.88;;;18.20;43.70;;;;;;5052457;28;20878;-68
2023/02/23 06:56:25;;;;;;;3.10;1.20;;;18.30;43.70;;;;;;5049512;28;20289;-68
2023/02/23 06:58:52;;;;;;;2.25;1.00;;;18.30;43.50;;;;;;5051292;28;20626;-68
2023/02/23 07:01:20;;;;;;;1.60;1.00;;;18.30;43.40;;;;;;5048984;28;20272;-68
2023/02/23 07:03:47;;;;;;;1.17;0.90;;;18.30;43.30;;;;;;5052328;28;20215;-68
2023/02/23 07:06:14;;;;;;;3.25;1.15;;;18.30;43.30;;;;;;5049094;28;20689;-68
2023/02/23 07:08:43;;;;;;;1.20;1.08;;;18.40;43.30;;;;;;5050760;28;20258;-68
2023/02/23 07:11:13;;;;;;;3.35;0.90;;;18.40;43.20;;;;;;5066235;28;20253;-68
2023/02/23 07:13:41;;;;;;;1.55;0.90;;;18.40;43.20;;;;;;5051762;28;20294;-68
2023/02/23 07:16:09;;;;;;;1.25;1.08;;;18.40;43.10;;;;;;5049628;28;20191;-68
2023/02/23 07:18:36;;;;;;;1.23;0.82;;;18.40;43.00;;;;;;5051583;28;20223;-68
2023/02/23 07:21:04;;;;;;;1.83;1.30;;;18.40;42.90;;;;;;5050604;28;20611;-68
2023/02/23 07:23:31;;;;;;;1.25;1.10;;;18.50;42.90;;;;;;5051473;28;20204;-68
2023/02/23 07:26:00;;;;;;;2.58;1.10;;;18.50;42.70;;;;;;5049573;28;20552;-68
2023/02/23 07:28:27;;;;;;;1.23;1.00;;;18.60;42.60;;;;;;5049805;28;20216;-68
2023/02/23 07:30:56;;;;;;;1.80;1.10;;;18.60;42.50;;;;;;5050629;28;20211;-68
2023/02/23 07:33:24;;;;;;;3.35;1.33;;;18.70;42.50;;;;;;5051296;28;20196;-68
2023/02/23 07:35:51;;;;;;;1.80;1.40;;;18.70;42.30;;;;;;5049982;28;20646;-68
2023/02/23 07:38:19;;;;;;;3.20;1.35;;;18.80;42.30;;;;;;5053131;28;20245;-68
2023/02/23 07:40:46;;;;;;;1.40;1.30;;;18.80;42.20;;;;;;5055359;28;20484;-68
2023/02/23 07:43:14;;;;;;;1.45;1.20;;;18.80;42.10;;;;;;5056422;28;20204;-68
2023/02/23 07:45:42;;;;;;;1.42;1.33;;;18.90;42.10;;;;;;5052686;28;20195;-68
2023/02/23 07:48:09;;;;;;;2.28;1.52;;;18.80;42.00;;;;;;5063254;28;20191;-68
2023/02/23 07:50:36;;;;;;;2.55;1.60;;;18.80;42.00;;;;;;5059994;28;20273;-68
2023/02/23 07:53:04;;;;;;;1.90;1.70;;;18.80;42.00;;;;;;5063985;28;20203;-68
2023/02/23 07:55:31;;;;;;;2.78;1.70;;;18.80;42.00;;;;;;5058277;28;20723;-67
2023/02/23 07:57:58;;;;;;;2.75;1.55;;;18.70;42.20;;;;;;5057969;28;20192;-66
2023/02/23 08:00:28;;;;;;;2.42;1.80;;;18.70;41.90;;;;;;5064777;28;20256;-68
2023/02/23 08:02:55;;;;;;;2.58;1.73;;;18.70;41.90;;;;;;5059336;28;20829;-68
2023/02/23 08:05:22;;;;;;;2.53;1.80;;;18.70;41.90;;;;;;5057970;28;20200;-68
2023/02/23 08:07:49;;;;;;;2.75;1.60;;;18.70;41.90;;;;;;5052292;28;20204;-64
2023/02/23 08:10:16;;;;;;;1.73;1.27;;;18.70;42.10;;;;;;5060779;28;20292;-64
2023/02/23 08:12:43;;;;;;;5.28;2.03;;;18.80;42.30;;;;;;5060516;28;20678;-64
2023/02/23 08:15:11;;;;;;;4.25;1.92;;;18.90;42.30;;;;;;5054075;28;20231;-61
2023/02/23 08:17:40;;;;;;;4.60;1.70;;;18.90;42.40;;;;;;5047145;28;20192;-66
2023/02/23 08:20:09;;;;;;;3.50;1.63;;;19.00;42.30;;;;;;5054389;28;20270;-66
2023/02/23 08:22:37;;;;;;;2.83;1.70;;;19.00;42.10;;;;;;5058191;28;20224;-65
2023/02/23 08:25:04;;;;;;;2.70;1.58;;;19.00;42.10;;;;;;5054375;28;20230;-63
2023/02/23 08:27:34;;;;;;;3.47;1.50;;;19.00;42.00;;;;;;5052411;28;20191;-67
2023/02/23 08:30:04;;;;;;;1.73;1.42;;;19.00;42.10;;;;;;5053531;28;20262;-67
2023/02/23 08:32:33;;;;;;;2.53;1.70;;;19.10;42.10;;;;;;5052045;28;20764;-66
2023/02/23 08:35:02;;;;;;;2.97;1.40;;;19.10;42.10;;;;;;5058706;28;20607;-66
2023/02/23 08:37:30;;;;;;;2.47;1.52;;;19.10;42.00;;;;;;5053557;28;20610;-66
2023/02/23 08:39:58;;;;;;;3.28;1.52;;;19.10;42.00;;;;;;5059805;28;20654;-66
2023/02/23 08:42:25;;;;;;;3.60;1.65;;;19.20;42.10;;;;;;5058516;28;20202;-65
2023/02/23 08:44:52;;;;;;;2.83;1.55;;;19.20;42.00;;;;;;5055508;28;20239;-66
2023/02/23 08:47:20;;;;;;;4.15;1.85;;;19.20;42.20;;;;;;5051649;28;20195;-66
2023/02/23 08:49:47;;;;;;;4.10;1.67;;;19.20;42.10;;;;;;5053562;28;20234;-67
2023/02/23 08:52:16;;;;;;;3.40;1.67;;;19.20;42.00;;;;;;5052151;28;20207;-66
2023/02/23 08:54:44;;;;;;;3.42;1.45;;;19.30;42.00;;;;;;5055758;28;20265;-67
2023/02/23 08:57:11;;;;;;;2.78;1.50;;;19.30;42.00;;;;;;5049661;28;20269;-67
2023/02/23 08:59:40;;;;;;;1.98;1.35;;;19.30;42.00;;;;;;5051982;28;20219;-68
2023/02/23 09:02:11;;;;;;;3.22;1.65;;;19.30;42.00;;;;;;5058066;28;20226;-65
2023/02/23 09:04:40;;;;;;;2.40;1.60;;;19.30;42.00;;;;;;5066291;28;20242;-66
2023/02/23 09:07:08;;;;;;;3.45;1.50;;;19.30;41.90;;;;;;5055281;28;20211;-66
2023/02/23 09:09:37;;;;;;;3.30;1.48;;;19.40;42.00;;;;;;5052522;28;20277;-66
2023/02/23 09:12:04;;;;;;;2.63;1.48;;;19.40;42.00;;;;;;5050042;28;20673;-67
2023/02/23 09:14:31;;;;;;;2.80;1.77;;;19.40;41.90;;;;;;5056985;28;20223;-64
2023/02/23 09:16:58;;;;;;;3.95;1.67;;;19.30;41.80;;;;;;5057553;28;20206;-64
2023/02/23 09:19:26;;;;;;;4.97;1.50;;;19.40;41.90;;;;;;5057232;28;20242;-66
2023/02/23 09:21:54;;;;;;;2.92;1.55;;;19.40;41.90;;;;;;5055968;28;20672;-67
2023/02/23 09:24:21;;;;;;;3.83;1.58;;;19.40;41.90;;;;;;5052624;28;20219;-65
2023/02/23 09:26:52;;;;;;;3.30;1.55;;;19.40;41.80;;;;;;5051501;28;20607;-67
2023/02/23 09:29:19;;;;;;;3.90;1.80;;;19.50;41.90;;;;;;5058270;28;20255;-67
2023/02/23 09:31:47;;;;;;;4.72;1.70;;;19.50;41.90;;;;;;5053074;28;20654;-69
2023/02/23 09:34:14;;;;;;;3.38;1.50;;;19.50;41.80;;;;;;5057042;28;20864;-65
2023/02/23 09:36:41;;;;;;;4.53;1.52;;;19.50;41.80;;;;;;5054885;28;20200;-65
2023/02/23 09:39:08;;;;;;;3.45;1.70;;;19.50;41.80;;;;;;5056521;28;20199;-66
2023/02/23 09:42:07;;;;;;;3.30;1.50;;;19.50;41.70;;;;;;5051468;28;20713;-65
2023/02/23 09:44:53;;;;;;;4.85;1.67;;;19.50;41.80;;;;;;5057805;28;20265;-63
2023/02/23 09:47:29;;;;;;;5.10;1.95;;;19.60;41.90;;;;;;5055224;28;20230;-67
2023/02/23 09:49:59;;;;;;;3.63;1.70;;;19.50;41.80;;;;;;5050318;28;20326;-71
2023/02/23 09:52:31;;;;;;;3.25;1.40;;;19.60;41.80;;;;;;5054998;28;20200;-63
2023/02/23 09:54:58;;;;;;;2.97;1.38;;;19.60;41.90;;;;;;5063574;28;20284;-64
2023/02/23 09:57:36;;;;;;;2.50;1.60;;;19.60;41.90;;;;;;5048272;28;20192;-65
2023/02/23 10:00:10;;;;;;;3.22;1.70;;;19.60;41.80;;;;;;5055457;28;20284;-64
2023/02/23 10:02:46;;;;;;;2.38;1.52;;;19.60;41.70;;;;;;5057433;28;20611;-64
2023/02/23 10:05:15;;;;;;;1.83;1.23;;;19.60;41.70;;;;;;5058432;28;20222;-66
2023/02/23 10:07:46;;;;;;;6.00;1.70;;;19.60;41.70;;;;;;5051670;28;20246;-65
2023/02/23 10:10:23;;;;;;;5.00;1.80;;;19.60;41.70;;;;;;5053728;28;20290;-65
2023/02/23 10:13:03;;;;;;;2.45;1.20;;;19.60;41.70;;;;;;5050061;28;20195;-65
2023/02/23 10:15:40;;;;;;;4.00;1.33;;;19.70;41.70;;;;;;5057480;28;20301;-65
2023/02/23 10:18:20;;;;;;;3.67;1.40;;;19.70;41.80;;;;;;5049483;28;20374;-65
2023/02/23 10:20:54;;;;;;;7.22;1.40;;;19.70;41.70;;;;;;5054497;28;20635;-66
2023/02/23 10:23:30;;;;;;;3.63;1.30;;;19.70;42.30;;;;;;5052097;28;20249;-66
2023/02/23 10:25:59;;;;;;;3.75;1.33;;;19.70;41.60;;;;;;5052475;28;20219;-66
2023/02/23 10:28:35;;;;;;;3.25;1.52;;;19.70;41.60;;;;;;5049903;28;20203;-65
2023/02/23 10:31:07;;;;;;;4.75;1.75;;;19.70;41.70;;;;;;5051365;28;20229;-64
2023/02/23 10:33:38;;;;;;;2.45;1.10;;;19.70;41.60;;;;;;5054011;28;20200;-65
2023/02/23 10:36:13;;;;;;;2.15;1.25;;;19.70;41.60;;;;;;5049372;28;20281;-65
2023/02/23 10:38:41;;;;;;;2.25;1.20;;;19.80;41.60;;;;;;5049614;28;20202;-65
2023/02/23 10:41:10;;;;;;;4.68;1.23;;;19.70;41.40;;;;;;5050171;28;20226;-65
2023/02/23 10:43:40;;;;;;;2.95;1.40;;;19.80;41.50;;;;;;5058029;28;20272;-66
2023/02/23 10:46:10;;;;;;;3.10;1.38;;;19.80;41.50;;;;;;5050466;28;20277;-65
2023/02/23 10:48:41;;;;;;;3.50;1.30;;;19.80;41.50;;;;;;5050217;28;20353;-65
2023/02/23 10:51:18;;;;;;;2.85;1.30;;;19.80;41.50;;;;;;5051418;28;20289;-65
2023/02/23 10:53:45;;;;;;;4.25;1.48;;;19.80;41.40;;;;;;5052228;28;20202;-65
2023/02/23 10:56:14;;;;;;;18.88;1.60;;;19.80;41.40;;;;;;5048564;28;20219;-66
2023/02/23 10:58:45;;;;;;;5.03;1.30;;;19.90;41.40;;;;;;5049896;28;20196;-65
2023/02/23 11:01:13;;;;;;;1.92;1.00;;;19.80;41.30;;;;;;5050696;28;20704;-66
2023/02/23 11:03:42;;;;;;;2.90;1.30;;;19.90;41.40;;;;;;5051897;28;20249;-66
2023/02/23 11:06:28;;;;;;;2.03;1.20;;;19.80;41.20;;;;;;5050133;28;20223;-64
2023/02/23 11:08:55;;;;;;;5.68;1.52;;;19.90;41.30;;;;;;5052792;28;20611;-66
2023/02/23 11:11:27;;;;;;;6.05;1.45;;;19.90;41.30;;;;;;5051793;28;20229;-64
2023/02/23 11:13:57;;;;;;;6.15;1.38;;;19.90;41.30;;;;;;5056344;28;20199;-65
2023/02/23 11:16:26;;;;;;;4.35;1.38;;;19.90;41.30;;;;;;5054232;28;20300;-65
2023/02/23 11:18:56;;;;;;;2.67;1.30;;;19.80;41.20;;;;;;5058862;28;20770;-66
2023/02/23 11:21:32;;;;;;;4.70;1.60;;;19.90;41.30;;;;;;5055035;28;20223;-63
2023/02/23 11:24:07;;;;;;;5.03;1.50;;;19.90;41.30;;;;;;5056109;28;20225;-66
2023/02/23 11:26:39;;;;;;;5.85;1.60;;;19.90;41.30;;;;;;5054582;28;20218;-66
2023/02/23 11:29:16;;;;;;;7.10;1.58;;;19.90;41.30;;;;;;5053967;28;20257;-64
2023/02/23 11:31:49;;;;;;;8.27;1.63;;;19.80;41.20;;;;;;5057486;28;20284;-65
2023/02/23 11:34:23;;;;;;;4.97;1.52;;;19.90;41.30;;;;;;5060102;28;20676;-66
2023/02/23 11:37:01;;;;;;;2.60;1.17;;;19.80;41.20;;;;;;5054237;28;20211;-64
2023/02/23 11:39:28;;;;;;;4.65;1.77;;;19.80;41.80;;;;;;5052102;28;20199;-65
2023/02/23 11:42:18;;;;;;;5.28;1.33;;;19.80;41.00;;;;;;5056366;28;20223;-66
2023/02/23 11:44:52;;;;;;;4.00;1.15;;;19.70;40.90;;;;;;5055370;28;20191;-65
2023/02/23 11:47:21;;;;;;;3.40;1.20;;;19.70;41.10;;;;;;5054500;28;20231;-65
2023/02/23 11:49:50;;;;;;;2.42;1.30;;;19.70;41.70;;;;;;5053451;28;20227;-66
2023/02/23 11:52:19;;;;;;;1.95;1.17;;;19.70;41.10;;;;;;5053927;28;20276;-65
2023/02/23 11:54:54;;;;;;;4.00;1.20;;;19.70;41.10;;;;;;5056307;28;20279;-64
2023/02/23 11:57:23;;;;;;;2.70;1.20;;;19.60;41.00;;;;;;5054405;28;20218;-65
2023/02/23 11:59:52;;;;;;;2.33;1.20;;;19.60;41.00;;;;;;5054050;28;20250;-64
2023/02/23 12:02:23;;;;;;;2.92;1.33;;;19.60;41.70;;;;;;5055062;28;20635;-64
2023/02/23 12:04:53;;;;;;;1.50;1.02;;;19.60;41.00;;;;;;5055242;28;20265;-65
2023/02/23 12:07:33;;;;;;;2.17;1.23;;;19.50;40.90;;;;;;5057008;28;20215;-65
2023/02/23 12:10:06;;;;;;;2.38;1.30;;;19.50;40.90;;;;;;5059055;28;20227;-65
2023/02/23 12:12:40;;;;;;;2.00;1.20;;;19.50;40.90;;;;;;5052605;28;20264;-66
2023/02/23 12:15:16;;;;;;;2.33;1.10;;;19.50;40.90;;;;;;5059143;28;20204;-64
2023/02/23 12:17:49;;;;;;;2.05;1.15;;;19.50;41.00;;;;;;5053514;28;20219;-64
2023/02/23 12:20:21;;;;;;;4.20;1.17;;;19.50;40.90;;;;;;5055243;28;20191;-65
2023/02/23 12:22:54;;;;;;;3.95;1.25;;;19.50;41.00;;;;;;5059198;28;20227;-64
2023/02/23 12:25:27;;;;;;;2.65;1.33;;;19.50;41.00;;;;;;5054380;28;20257;-65
2023/02/23 12:28:04;;;;;;;4.55;1.20;;;19.60;41.10;;;;;;5052463;28;20220;-64
2023/02/23 12:30:44;;;;;;;1.92;1.23;;;19.60;41.00;;;;;;5063243;28;20191;-65
2023/02/23 12:33:15;;;;;;;3.42;1.20;;;19.60;41.00;;;;;;5061024;28;20207;-64
2023/02/23 12:35:49;;;;;;;2.08;1.30;;;19.60;41.10;;;;;;5054249;28;20199;-65
2023/02/23 12:38:26;;;;;;;3.15;1.52;;;19.60;41.00;;;;;;5056242;28;20201;-65
2023/02/23 12:40:59;;;;;;;2.85;1.15;;;19.60;41.00;;;;;;5059723;28;20302;-65
2023/02/23 12:43:35;;;;;;;2.38;1.10;;;19.70;41.10;;;;;;5060668;28;20730;-64
2023/02/23 12:46:11;;;;;;;2.40;1.05;;;19.60;41.00;;;;;;5061773;28;20240;-65
2023/02/23 12:48:47;;;;;;;2.75;1.20;;;19.70;41.10;;;;;;5053824;28;20294;-65
2023/02/23 12:51:24;;;;;;;7.28;1.35;;;19.70;41.10;;;;;;5059886;28;20231;-65
2023/02/23 12:53:52;;;;;;;5.18;1.15;;;19.70;41.10;;;;;;5055463;28;20596;-65
2023/02/23 12:56:45;;;;;;;2.92;1.00;;;19.70;41.20;;;;;;5054329;28;20231;-65
2023/02/23 12:59:38;;;;;;;2.90;1.05;;;19.70;41.10;;;;;;5058511;28;20196;-65
2023/02/23 13:02:12;;;;;;;3.60;1.08;;;19.70;41.20;;;;;;5059274;28;20222;-65
2023/02/23 13:04:53;;;;;;;31.35;16.70;;;19.70;41.10;;;;;;5050673;28;20203;-67
2023/02/23 13:07:25;;;;;;;53.05;27.23;;;19.70;41.10;;;;;;5057056;28;20268;-65
2023/02/23 13:10:06;;;;;;;50.75;29.27;;;19.80;41.20;;;;;;5056005;28;20241;-64
2023/02/23 13:12:48;;;;;;;80.15;42.38;;;19.80;41.20;;;;;;5058992;28;20245;-63
2023/02/23 13:15:23;;;;;;;85.65;46.65;;;19.90;41.30;;;;;;5051962;28;20519;-64
2023/02/23 13:18:05;;;;;;;99.28;51.15;;;20.00;41.30;;;;;;5058483;28;20670;-65
2023/02/23 13:20:38;;;;;;;81.10;42.15;;;20.00;41.20;;;;;;5061237;28;20227;-65
2023/02/23 13:23:22;;;;;;;67.07;34.90;;;20.10;41.20;;;;;;5060720;28;20234;-65
2023/02/23 13:26:00;;;;;;;54.03;32.03;;;20.20;41.10;;;;;;5063029;28;20358;-64
2023/02/23 13:28:39;;;;;;;49.55;27.17;;;20.20;41.20;;;;;;5060989;28;20305;-64
2023/02/23 13:31:19;;;;;;;30.45;17.98;;;20.30;41.30;;;;;;5061389;28;20200;-65
2023/02/23 13:33:48;;;;;;;33.45;20.17;;;20.30;41.40;;;;;;5052686;28;20317;-65
2023/02/23 13:36:16;;;;;;;35.25;18.73;;;20.30;41.60;;;;;;5064786;28;20257;-66
2023/02/23 13:38:55;;;;;;;27.70;16.08;;;20.40;41.60;;;;;;5054290;28;20211;-65
2023/02/23 13:41:33;;;;;;;41.38;25.38;;;20.40;41.60;;;;;;5060163;28;20191;-64
2023/02/23 13:44:08;;;;;;;38.83;23.20;;;20.50;41.60;;;;;;5058412;28;20289;-65
2023/02/23 13:46:44;;;;;;;31.95;17.10;;;20.50;41.50;;;;;;5059600;28;20217;-65
2023/02/23 13:49:31;;;;;;;30.77;16.00;;;20.40;41.40;;;;;;5060220;28;20205;-64
2023/02/23 13:52:05;;;;;;;23.95;14.85;;;20.50;41.80;;;;;;5052822;28;20663;-64
2023/02/23 13:54:35;;;;;;;22.33;13.00;;;20.50;41.80;;;;;;5055396;28;20228;-65
2023/02/23 13:57:15;;;;;;;24.27;10.70;;;20.50;41.80;;;;;;5052154;28;20804;-65
2023/02/23 13:59:48;;;;;;;14.85;8.88;;;20.50;41.80;;;;;;5051574;28;20684;-63
2023/02/23 14:02:35;;;;;;;13.95;8.30;;;20.60;41.80;;;;;;5025462;28;20256;-65
2023/02/23 14:05:07;;;;;;;17.02;7.60;;;20.60;41.80;;;;;;5054837;28;20309;-65
2023/02/23 14:07:43;;;;;;;17.08;6.78;;;20.60;41.80;;;;;;5049706;28;20223;-63
2023/02/23 14:10:18;;;;;;;14.25;6.07;;;20.60;41.80;;;;;;5054198;28;20198;-66
2023/02/23 14:13:04;;;;;;;12.27;5.80;;;20.70;41.90;;;;;;5050592;28;20480;-64
2023/02/23 14:15:44;;;;;;;10.05;5.97;;;20.70;41.90;;;;;;5051282;28;20219;-64
2023/02/23 14:18:33;;;;;;;11.23;5.35;;;20.70;41.90;;;;;;5050510;28;20234;-63
2023/02/23 14:21:16;;;;;;;9.63;5.50;;;20.70;41.90;;;;;;5049678;28;20377;-63
2023/02/23 14:23:51;;;;;;;11.80;4.40;;;20.70;41.90;;;;;;5046504;28;20219;-63
2023/02/23 14:26:43;;;;;;;10.95;5.30;;;20.70;41.90;;;;;;5067446;28;20205;-63